Time;durP1;ratioP1;P1;durP2;ratioP2;P2;SDS_P1;SDS_P2;PMS_P1;PMS_P2;Temp;Humidity;BMP_temperature;BMP_pressure;BME280_temperature;BME280_humidity;BME280_pressure;Samples;Min_cycle;Max_cycle;Signal;HPM_P1;HPM_P2
2022/12/29 00:01:21;;;;;;;;;;;;;;;9.24;100.00;99932.00;5054124;28;19927;-83
2022/12/29 00:03:46;;;;;;;;;;;;;;;9.21;100.00;99940.22;5036560;28;19916;-83
2022/12/29 00:06:13;;;;;;;;;;;;;;;9.20;100.00;99918.34;5055996;28;20691;-83
2022/12/29 00:08:41;;;;;;;;;;;;;;;9.24;100.00;99921.47;5054939;28;19925;-84
2022/12/29 00:11:11;;;;;;;;;;;;;;;9.25;100.00;99909.94;5055455;28;19920;-82
2022/12/29 00:16:21;;;;;;;;;;;;;;;9.25;100.00;99907.31;5054413;28;20014;-82
2022/12/29 00:18:46;;;;;;;;;;;;;;;9.21;100.00;99904.19;5048996;28;19944;-81
2022/12/29 00:35:10;;;;;;;;;;;;;;;9.13;100.00;99982.34;5054091;28;19942;-82
2022/12/29 00:45:55;;;;;;;;;;;;;;;9.32;100.00;99994.38;5053849;28;19981;-82
2022/12/29 00:51:05;;;;;;;;;;;;;;;9.40;100.00;99981.22;5054283;28;19924;-82
2022/12/29 00:53:30;;;;;;;;;;;;;;;9.48;100.00;99960.16;5053009;28;19921;-82
2022/12/29 00:55:56;;;;;;;;;;;;;;;9.51;100.00;99943.19;5051270;28;19924;-83
2022/12/29 00:58:21;;;;;;;;;;;;;;;9.52;100.00;99939.59;5052848;28;20587;-82
2022/12/29 01:00:46;;;;;;;;;;;;;;;9.53;100.00;99907.78;5051140;28;19943;-82
2022/12/29 01:03:11;;;;;;;;;;;;;;;9.52;100.00;99900.09;5053937;28;19927;-82
2022/12/29 01:05:37;;;;;;;;;;;;;;;9.46;100.00;99891.84;5053059;28;19921;-82
2022/12/29 01:08:02;;;;;;;;;;;;;;;9.46;100.00;99883.94;5052464;28;20332;-82
2022/12/29 01:10:27;;;;;;;;;;;;;;;9.50;100.00;99873.91;5055181;28;20095;-82
2022/12/29 01:12:53;;;;;;;;;;;;;;;9.57;100.00;99855.63;5056152;28;19967;-82
2022/12/29 01:15:18;;;;;;;;;;;;;;;9.61;100.00;99854.28;5056283;28;20285;-82
2022/12/29 01:17:43;;;;;;;;;;;;;;;9.64;100.00;99853.94;5055518;28;19994;-83
2022/12/29 01:20:10;;;;;;;;;;;;;;;9.66;100.00;99830.88;5063062;28;19928;-82
2022/12/29 01:22:35;;;;;;;;;;;;;;;9.64;100.00;99838.13;5056706;28;19924;-82
2022/12/29 01:25:01;;;;;;;;;;;;;;;9.70;100.00;99811.13;5056655;28;20327;-82
2022/12/29 01:27:26;;;;;;;;;;;;;;;9.68;100.00;99798.09;5037307;28;19924;-82
2022/12/29 01:29:51;;;;;;;;;;;;;;;9.65;100.00;99798.47;5056117;28;19931;-82
2022/12/29 01:32:16;;;;;;;;;;;;;;;9.69;100.00;99796.31;5055963;28;19921;-82
2022/12/29 01:34:42;;;;;;;;;;;;;;;9.70;100.00;99789.22;5058216;28;19921;-82
2022/12/29 01:37:08;;;;;;;;;;;;;;;9.70;100.00;99783.97;5055643;28;20035;-83
2022/12/29 01:39:33;;;;;;;;;;;;;;;9.66;100.00;99765.84;5062462;28;19920;-83
2022/12/29 01:41:59;;;;;;;;;;;;;;;9.71;100.00;99770.59;5055538;28;20054;-82
2022/12/29 01:44:43;;;;;;;;;;;;;;;9.65;100.00;99760.75;5039094;28;19925;-82
2022/12/29 01:47:08;;;;;;;;;;;;;;;9.58;100.00;99775.59;5056060;28;19916;-82
2022/12/29 01:49:34;;;;;;;;;;;;;;;9.55;100.00;99775.94;5054434;28;20581;-83
2022/12/29 01:52:02;;;;;;;;;;;;;;;9.52;100.00;99778.91;5055359;28;19964;-83
2022/12/29 01:54:34;;;;;;;;;;;;;;;9.51;100.00;99785.97;5054991;28;19916;-82
2022/12/29 01:57:02;;;;;;;;;;;;;;;9.53;100.00;99789.25;5055415;28;20340;-82
2022/12/29 01:59:39;;;;;;;;;;;;;;;9.47;100.00;99805.72;5054509;28;19927;-83
2022/12/29 02:02:05;;;;;;;;;;;;;;;9.38;100.00;99809.38;5053903;28;19920;-83
2022/12/29 02:04:32;;;;;;;;;;;;;;;9.32;100.00;99828.47;5055916;28;20019;-83
2022/12/29 02:07:01;;;;;;;;;;;;;;;9.23;100.00;99840.81;5054560;28;20083;-83
2022/12/29 02:09:26;;;;;;;;;;;;;;;9.17;100.00;99857.31;5055508;28;20010;-83
2022/12/29 02:11:52;;;;;;;;;;;;;;;9.12;100.00;99875.38;5039562;28;19952;-83
2022/12/29 02:14:17;;;;;;;;;;;;;;;9.07;100.00;99895.13;5055044;28;19917;-83
2022/12/29 02:17:11;;;;;;;;;;;;;;;9.04;100.00;99920.97;5054278;28;19925;-83
2022/12/29 02:19:50;;;;;;;;;;;;;;;9.01;100.00;99931.81;5053083;28;19996;-83
2022/12/29 02:22:21;;;;;;;;;;;;;;;8.97;100.00;99956.78;5055791;28;20358;-84
2022/12/29 02:25:05;;;;;;;;;;;;;;;8.95;100.00;99953.50;5055847;28;19988;-84
2022/12/29 02:27:49;;;;;;;;;;;;;;;8.93;100.00;99982.63;5054591;28;19956;-84
2022/12/29 02:30:18;;;;;;;;;;;;;;;8.91;100.00;100004.81;5054958;28;20346;-83
2022/12/29 02:32:46;;;;;;;;;;;;;;;8.93;100.00;100024.72;5055609;28;19932;-83
2022/12/29 02:35:34;;;;;;;;;;;;;;;8.91;100.00;100031.16;5054100;28;19920;-83
2022/12/29 02:38:02;;;;;;;;;;;;;;;8.89;100.00;100033.94;5053828;28;20011;-82
2022/12/29 02:40:33;;;;;;;;;;;;;;;8.88;100.00;100026.19;5053648;28;19928;-83
2022/12/29 02:43:02;;;;;;;;;;;;;;;8.91;100.00;100041.66;5053630;28;19925;-82
2022/12/29 02:45:33;;;;;;;;;;;;;;;8.90;100.00;100045.28;5060646;28;19920;-83
2022/12/29 02:47:58;;;;;;;;;;;;;;;8.91;100.00;100047.75;5053157;28;19935;-83
2022/12/29 02:50:27;;;;;;;;;;;;;;;8.93;100.00;100035.25;5055018;28;19921;-83
2022/12/29 02:52:58;;;;;;;;;;;;;;;8.95;100.00;100043.81;5055242;28;19920;-84
2022/12/29 02:55:23;;;;;;;;;;;;;;;8.98;100.00;100043.50;5054511;28;19927;-84
2022/12/29 02:58:06;;;;;;;;;;;;;;;8.98;100.00;100046.13;5054641;28;20764;-83
2022/12/29 03:00:31;;;;;;;;;;;;;;;8.97;100.00;100039.22;5052995;28;19930;-83
2022/12/29 03:03:05;;;;;;;;;;;;;;;8.97;100.00;100043.63;5054990;28;19964;-83
2022/12/29 03:05:33;;;;;;;;;;;;;;;9.00;100.00;100046.78;5055658;28;20478;-83
2022/12/29 03:08:06;;;;;;;;;;;;;;;8.99;100.00;100047.78;5061439;28;19942;-82
2022/12/29 03:10:34;;;;;;;;;;;;;;;8.99;100.00;100033.78;5053492;28;19920;-82
2022/12/29 03:16:03;;;;;;;;;;;;;;;9.09;100.00;100042.38;5053945;28;20458;-82
2022/12/29 03:18:41;;;;;;;;;;;;;;;9.03;100.00;100020.13;5060498;28;20299;-82
2022/12/29 03:21:11;;;;;;;;;;;;;;;9.01;100.00;100027.38;5052683;28;19970;-83
2022/12/29 03:23:37;;;;;;;;;;;;;;;9.03;100.00;99991.19;5054631;28;19999;-82
2022/12/29 03:26:06;;;;;;;;;;;;;;;9.06;100.00;100014.56;5052760;28;19974;-83
2022/12/29 03:28:40;;;;;;;;;;;;;;;9.11;100.00;100005.38;5053642;28;20658;-82
2022/12/29 03:31:06;;;;;;;;;;;;;;;9.18;100.00;99980.03;5053838;28;21713;-82
2022/12/29 03:33:32;;;;;;;;;;;;;;;9.17;100.00;99970.50;5053950;28;20415;-82
2022/12/29 03:36:00;;;;;;;;;;;;;;;9.14;100.00;99952.38;5053621;28;19913;-82
2022/12/29 03:38:30;;;;;;;;;;;;;;;9.15;100.00;99954.06;5053196;28;19944;-82
2022/12/29 03:40:58;;;;;;;;;;;;;;;9.12;100.00;99938.56;5053618;28;20385;-81
2022/12/29 03:43:24;;;;;;;;;;;;;;;9.18;100.00;99922.13;5052184;28;19924;-82
2022/12/29 03:45:49;;;;;;;;;;;;;;;9.28;100.00;99896.47;5053687;28;19924;-82
2022/12/29 03:48:15;;;;;;;;;;;;;;;9.25;100.00;99868.66;5052484;28;20245;-84
2022/12/29 03:50:40;;;;;;;;;;;;;;;9.18;100.00;99845.78;5051218;28;19970;-81
2022/12/29 03:53:05;;;;;;;;;;;;;;;9.15;100.00;99817.97;5054385;28;19951;-81
2022/12/29 03:55:30;;;;;;;;;;;;;;;9.14;100.00;99786.53;5054387;28;19956;-82
2022/12/29 03:57:56;;;;;;;;;;;;;;;9.12;100.00;99738.50;5043480;28;19944;-82
2022/12/29 04:00:21;;;;;;;;;;;;;;;9.12;100.00;99730.63;5053227;28;20664;-82
2022/12/29 04:02:46;;;;;;;;;;;;;;;9.06;100.00;99709.25;5060165;28;19958;-81
2022/12/29 04:05:12;;;;;;;;;;;;;;;9.04;100.00;99697.25;5035353;28;19925;-81
2022/12/29 04:07:37;;;;;;;;;;;;;;;9.05;100.00;99691.81;5053405;28;19928;-82
2022/12/29 04:10:02;;;;;;;;;;;;;;;9.10;100.00;99678.13;5035999;28;20019;-82
2022/12/29 04:12:28;;;;;;;;;;;;;;;9.10;100.00;99678.13;5053953;28;19920;-81
2022/12/29 04:14:53;;;;;;;;;;;;;;;9.00;100.00;99657.28;5050886;28;19925;-82
2022/12/29 04:17:19;;;;;;;;;;;;;;;9.06;100.00;99653.97;5052283;28;19951;-82
2022/12/29 04:19:44;;;;;;;;;;;;;;;9.08;100.00;99653.81;5052234;28;20488;-82
2022/12/29 04:22:09;;;;;;;;;;;;;;;9.10;100.00;99657.06;5052914;28;19920;-82
2022/12/29 04:24:34;;;;;;;;;;;;;;;9.10;100.00;99640.47;5037767;28;19987;-82
2022/12/29 04:26:59;;;;;;;;;;;;;;;9.15;100.00;99640.81;5035106;28;19994;-82
2022/12/29 04:29:25;;;;;;;;;;;;;;;9.16;100.00;99639.78;5033915;28;19928;-83
2022/12/29 04:31:50;;;;;;;;;;;;;;;9.16;100.00;99639.78;5052902;28;19955;-82
2022/12/29 04:34:15;;;;;;;;;;;;;;;9.21;100.00;99637.47;5051775;28;19990;-82
2022/12/29 04:36:40;;;;;;;;;;;;;;;9.27;100.00;99631.53;5052830;28;19928;-83
2022/12/29 04:39:06;;;;;;;;;;;;;;;9.31;100.00;99626.75;5036255;28;20261;-82
2022/12/29 04:41:31;;;;;;;;;;;;;;;9.31;100.00;99626.75;5053361;28;19961;-82
2022/12/29 04:43:57;;;;;;;;;;;;;;;9.24;100.00;99626.59;5053096;28;19924;-83
2022/12/29 04:46:22;;;;;;;;;;;;;;;9.24;100.00;99626.59;5054960;28;20412;-83
2022/12/29 04:48:47;;;;;;;;;;;;;;;9.17;100.00;99610.69;5056191;28;19924;-83
2022/12/29 04:51:13;;;;;;;;;;;;;;;9.23;100.00;99606.53;5057061;28;19946;-83
2022/12/29 04:53:38;;;;;;;;;;;;;;;9.22;100.00;99597.81;5057966;28;19917;-82
2022/12/29 04:56:03;;;;;;;;;;;;;;;9.25;100.00;99594.00;5054872;28;20031;-83
2022/12/29 04:58:29;;;;;;;;;;;;;;;9.20;100.00;99598.97;5055585;28;19988;-82
2022/12/29 05:00:54;;;;;;;;;;;;;;;9.14;100.00;99594.41;5055787;28;20014;-83
2022/12/29 05:03:19;;;;;;;;;;;;;;;9.06;100.00;99580.28;5055288;28;19917;-83
2022/12/29 05:05:44;;;;;;;;;;;;;;;8.98;100.00;99587.41;5057403;28;19920;-81
2022/12/29 05:08:10;;;;;;;;;;;;;;;8.95;100.00;99591.19;5039576;28;19932;-82
2022/12/29 05:10:35;;;;;;;;;;;;;;;8.95;100.00;99591.19;5056781;28;20313;-82
2022/12/29 05:13:00;;;;;;;;;;;;;;;8.88;100.00;99592.84;5057403;28;19963;-83
2022/12/29 05:15:26;;;;;;;;;;;;;;;8.82;100.00;99597.00;5055455;28;19924;-82
2022/12/29 05:17:51;;;;;;;;;;;;;;;8.78;100.00;99587.78;5062510;28;19953;-83
2022/12/29 05:20:17;;;;;;;;;;;;;;;8.74;100.00;99580.41;5055716;28;20140;-82
2022/12/29 05:22:42;;;;;;;;;;;;;;;8.70;100.00;99592.25;5056581;28;19921;-83
2022/12/29 05:25:08;;;;;;;;;;;;;;;8.63;100.00;99598.19;5039055;28;19967;-82
2022/12/29 05:27:33;;;;;;;;;;;;;;;8.60;100.00;99585.38;5045878;28;20011;-83
2022/12/29 05:29:59;;;;;;;;;;;;;;;8.65;100.00;99598.84;5056428;28;20007;-83
2022/12/29 05:32:24;;;;;;;;;;;;;;;8.60;100.00;99590.63;5055930;28;20449;-83
2022/12/29 05:34:49;;;;;;;;;;;;;;;8.57;100.00;99601.47;5061785;28;19945;-82
2022/12/29 05:37:15;;;;;;;;;;;;;;;8.53;100.00;99608.06;5056073;28;20468;-83
2022/12/29 05:39:40;;;;;;;;;;;;;;;8.55;100.00;99600.81;5056152;28;20366;-83
2022/12/29 05:42:05;;;;;;;;;;;;;;;8.61;100.00;99594.09;5054830;28;20080;-83
2022/12/29 05:44:30;;;;;;;;;;;;;;;8.55;100.00;99613.97;5054106;28;20449;-82
2022/12/29 05:46:56;;;;;;;;;;;;;;;8.51;100.00;99609.22;5055368;28;20326;-82
2022/12/29 05:49:21;;;;;;;;;;;;;;;8.44;100.00;99607.25;5055954;28;19966;-82
2022/12/29 05:51:46;;;;;;;;;;;;;;;8.48;100.00;99605.13;5055636;28;20023;-83
2022/12/29 05:54:12;;;;;;;;;;;;;;;8.52;100.00;99610.88;5057278;28;19956;-83
2022/12/29 05:56:37;;;;;;;;;;;;;;;8.43;100.00;99603.00;5054276;28;20006;-83
2022/12/29 05:59:02;;;;;;;;;;;;;;;8.48;100.00;99610.38;5056040;28;20007;-83
2022/12/29 06:01:27;;;;;;;;;;;;;;;8.49;100.00;99605.94;5054286;28;19994;-82
2022/12/29 06:03:52;;;;;;;;;;;;;;;8.58;100.00;99605.75;5054839;28;19920;-83
2022/12/29 06:06:18;;;;;;;;;;;;;;;8.56;100.00;99596.41;5056041;28;19971;-83
2022/12/29 06:08:43;;;;;;;;;;;;;;;8.55;100.00;99602.63;5056661;28;19977;-83
2022/12/29 06:11:08;;;;;;;;;;;;;;;8.55;100.00;99613.97;5054227;28;20652;-83
2022/12/29 06:13:34;;;;;;;;;;;;;;;8.54;100.00;99609.72;5044444;28;19920;-83
2022/12/29 06:15:59;;;;;;;;;;;;;;;8.50;100.00;99615.47;5055801;28;19956;-82
2022/12/29 06:18:24;;;;;;;;;;;;;;;8.44;100.00;99619.56;5055844;28;19928;-82
2022/12/29 06:20:49;;;;;;;;;;;;;;;8.44;100.00;99612.50;5038954;28;20011;-82
2022/12/29 06:23:16;;;;;;;;;;;;;;;8.39;100.00;99612.16;5054387;28;20606;-82
2022/12/29 06:25:41;;;;;;;;;;;;;;;8.43;100.00;99617.94;5052668;28;19924;-82
2022/12/29 06:28:06;;;;;;;;;;;;;;;8.51;100.00;99620.53;5053539;28;19928;-82
2022/12/29 06:30:32;;;;;;;;;;;;;;;8.54;100.00;99611.53;5051753;28;19920;-83
2022/12/29 06:32:58;;;;;;;;;;;;;;;8.49;100.00;99606.75;5053590;28;19933;-83
2022/12/29 06:35:23;;;;;;;;;;;;;;;8.49;100.00;99614.63;5068343;28;19935;-82
2022/12/29 06:37:48;;;;;;;;;;;;;;;8.48;100.00;99602.47;5055109;28;20457;-82
2022/12/29 06:40:14;;;;;;;;;;;;;;;8.49;100.00;99606.75;5054872;28;19955;-83
2022/12/29 06:42:39;;;;;;;;;;;;;;;8.47;100.00;99603.50;5054064;28;20461;-82
2022/12/29 06:45:05;;;;;;;;;;;;;;;8.41;100.00;99610.22;5051543;28;19924;-82
2022/12/29 06:47:30;;;;;;;;;;;;;;;8.40;100.00;99594.56;5053543;28;19965;-82
2022/12/29 06:49:55;;;;;;;;;;;;;;;8.41;100.00;99593.63;5052680;28;20402;-82
2022/12/29 06:52:20;;;;;;;;;;;;;;;8.42;100.00;99590.81;5035881;28;19951;-82
2022/12/29 06:54:46;;;;;;;;;;;;;;;8.44;100.00;99594.09;5054299;28;19925;-82
2022/12/29 06:57:11;;;;;;;;;;;;;;;8.39;100.00;99600.84;5052620;28;20064;-83
2022/12/29 06:59:36;;;;;;;;;;;;;;;8.33;100.00;99591.78;5052746;28;19951;-83
2022/12/29 07:02:02;;;;;;;;;;;;;;;8.40;100.00;99602.47;5053547;28;19921;-83
2022/12/29 07:04:27;;;;;;;;;;;;;;;8.38;100.00;99599.16;5054026;28;20276;-83
2022/12/29 07:06:52;;;;;;;;;;;;;;;8.40;100.00;99602.47;5052974;28;19925;-83
2022/12/29 07:09:18;;;;;;;;;;;;;;;8.40;100.00;99590.16;5059044;28;20666;-84
2022/12/29 07:11:43;;;;;;;;;;;;;;;8.37;100.00;99598.34;5053506;28;19977;-83
2022/12/29 07:14:10;;;;;;;;;;;;;;;8.34;100.00;99593.44;5055472;28;19931;-83
2022/12/29 07:16:35;;;;;;;;;;;;;;;8.36;100.00;99612.50;5052837;28;20160;-83
2022/12/29 07:19:00;;;;;;;;;;;;;;;8.31;100.00;99598.19;5053746;28;19936;-84
2022/12/29 07:21:26;;;;;;;;;;;;;;;8.26;100.00;99601.34;5059336;28;20299;-83
2022/12/29 07:23:51;;;;;;;;;;;;;;;8.29;100.00;99598.34;5060036;28;19931;-84
2022/12/29 07:26:19;;;;;;;;;;;;;;;8.24;100.00;99609.38;5052599;28;19924;-84
2022/12/29 07:28:45;;;;;;;;;;;;;;;8.31;100.00;99603.47;5051852;28;19920;-83
2022/12/29 07:31:20;;;;;;;;;;;;;;;8.33;100.00;99596.22;5051475;28;19931;-83
2022/12/29 07:33:45;;;;;;;;;;;;;;;8.41;100.00;99609.41;5052718;28;19916;-83
2022/12/29 07:36:12;;;;;;;;;;;;;;;8.45;100.00;99610.72;5055643;28;20291;-83
2022/12/29 07:38:37;;;;;;;;;;;;;;;8.46;100.00;99616.78;5036232;28;19964;-83
2022/12/29 07:41:02;;;;;;;;;;;;;;;8.44;100.00;99619.56;5052905;28;20038;-84
2022/12/29 07:43:28;;;;;;;;;;;;;;;8.46;100.00;99611.53;5052805;28;20001;-83
2022/12/29 07:45:53;;;;;;;;;;;;;;;8.50;100.00;99616.28;5054034;28;19920;-83
2022/12/29 07:48:18;;;;;;;;;;;;;;;8.62;100.00;99617.59;5052908;28;20125;-84
2022/12/29 07:50:43;;;;;;;;;;;;;;;8.59;100.00;99628.44;5052821;28;19928;-83
2022/12/29 07:53:09;;;;;;;;;;;;;;;8.57;100.00;99622.50;5053453;28;19951;-83
2022/12/29 07:55:34;;;;;;;;;;;;;;;8.62;100.00;99625.47;5035091;28;19936;-83
2022/12/29 07:57:59;;;;;;;;;;;;;;;8.64;100.00;99626.13;5052122;28;19968;-85
2022/12/29 08:00:25;;;;;;;;;;;;;;;8.63;100.00;99631.56;5049019;28;19924;-82
2022/12/29 08:02:50;;;;;;;;;;;;;;;8.66;100.00;99631.22;5051368;28;19916;-82
2022/12/29 08:05:15;;;;;;;;;;;;;;;8.65;100.00;99632.22;5053890;28;20015;-82
2022/12/29 08:07:44;;;;;;;;;;;;;;;8.62;100.00;99632.53;5050136;28;20342;-83
2022/12/29 08:10:09;;;;;;;;;;;;;;;8.69;100.00;99625.63;5051190;28;20495;-82
2022/12/29 08:12:35;;;;;;;;;;;;;;;8.70;100.00;99623.81;5052287;28;19927;-81
2022/12/29 08:15:00;;;;;;;;;;;;;;;8.70;100.00;99629.88;5052185;28;20425;-82
2022/12/29 08:17:25;;;;;;;;;;;;;;;8.68;100.00;99628.41;5034600;28;19937;-82
2022/12/29 08:19:51;;;;;;;;;;;;;;;8.54;100.00;99632.56;5051042;28;19990;-82
2022/12/29 08:22:16;;;;;;;;;;;;;;;8.52;100.00;99656.38;5050312;28;20697;-82
2022/12/29 08:24:41;;;;;;;;;;;;;;;8.48;100.00;99636.66;5035706;28;19924;-82
2022/12/29 08:27:06;;;;;;;;;;;;;;;8.44;100.00;99659.81;5052518;28;20222;-82
2022/12/29 08:29:31;;;;;;;;;;;;;;;8.48;100.00;99655.06;5050535;28;19986;-82
2022/12/29 08:31:57;;;;;;;;;;;;;;;8.46;100.00;99641.25;5050760;28;20027;-82
2022/12/29 08:34:22;;;;;;;;;;;;;;;8.49;100.00;99648.81;5035465;28;19924;-83
2022/12/29 08:36:47;;;;;;;;;;;;;;;8.49;100.00;99648.81;5050539;28;20007;-83
2022/12/29 08:39:13;;;;;;;;;;;;;;;8.49;100.00;99654.06;5051020;28;19974;-83
2022/12/29 08:41:38;;;;;;;;;;;;;;;8.56;100.00;99649.00;5051133;28;19924;-83
2022/12/29 08:44:04;;;;;;;;;;;;;;;8.62;100.00;99659.69;5055280;28;19925;-84
2022/12/29 08:46:29;;;;;;;;;;;;;;;8.58;100.00;99655.72;5052528;28;19925;-84
2022/12/29 08:48:54;;;;;;;;;;;;;;;8.51;100.00;99664.44;5050856;28;19920;-81
2022/12/29 08:51:20;;;;;;;;;;;;;;;8.38;100.00;99660.47;5052931;28;19917;-82
2022/12/29 08:53:45;;;;;;;;;;;;;;;8.25;100.00;99673.28;5051377;28;19964;-81
2022/12/29 08:56:11;;;;;;;;;;;;;;;8.11;100.00;99669.50;5051011;28;20363;-82
2022/12/29 08:58:36;;;;;;;;;;;;;;;8.05;100.00;99672.75;5052746;28;19917;-85
2022/12/29 09:01:02;;;;;;;;;;;;;;;8.01;100.00;99676.69;5051844;28;19920;-82
2022/12/29 09:03:27;;;;;;;;;;;;;;;8.06;100.00;99679.69;5052882;28;20505;-82
2022/12/29 09:05:53;;;;;;;;;;;;;;;8.07;100.00;99683.94;5053611;28;19916;-82
2022/12/29 09:08:19;;;;;;;;;;;;;;;8.07;100.00;99683.94;5053407;28;20608;-83
2022/12/29 09:10:45;;;;;;;;;;;;;;;8.08;100.00;99693.47;5053672;28;19917;-85
2022/12/29 09:13:11;;;;;;;;;;;;;;;8.09;100.00;99686.41;5050915;28;19928;-82
2022/12/29 09:15:37;;;;;;;;;;;;;;;8.14;100.00;99690.19;5056823;28;20021;-84
2022/12/29 09:18:02;;;;;;;;;;;;;;;8.12;100.00;99697.44;5050673;28;20015;-83
2022/12/29 09:20:27;;;;;;;;;;;;;;;8.24;100.00;99697.94;5052081;28;19920;-84
2022/12/29 09:22:53;;;;;;;;;;;;;;;8.14;100.00;99695.44;5032186;28;20509;-83
2022/12/29 09:25:19;;;;;;;;;;;;;;;8.07;100.00;99702.34;5049342;28;19925;-84
2022/12/29 09:27:45;;;;;;;;;;;;;;;8.02;100.00;99702.00;5052020;28;19921;-84
2022/12/29 09:30:11;;;;;;;;;;;;;;;7.95;100.00;99707.09;5051273;28;19956;-83
2022/12/29 09:32:36;;;;;;;;;;;;;;;7.88;100.00;99715.75;5056053;28;19973;-85
2022/12/29 09:35:02;;;;;;;;;;;;;;;7.82;100.00;99741.69;5038016;28;19924;-84
2022/12/29 09:37:27;;;;;;;;;;;;;;;7.86;100.00;99736.09;5061012;28;20304;-83
2022/12/29 09:39:52;;;;;;;;;;;;;;;7.86;100.00;99746.63;5060941;28;19924;-84
2022/12/29 09:42:34;;;;;;;;;;;;;;;7.91;100.00;99742.53;5056092;28;20365;-83
2022/12/29 09:45:05;;;;;;;;;;;;;;;8.00;100.00;99720.56;5055593;28;20414;-83
2022/12/29 09:47:31;;;;;;;;;;;;;;;8.12;100.00;99747.38;5052502;28;19966;-84
2022/12/29 09:50:00;;;;;;;;;;;;;;;8.10;100.00;99748.47;5053284;28;19942;-83
2022/12/29 09:52:29;;;;;;;;;;;;;;;8.03;100.00;99733.38;5054470;28;19951;-83
2022/12/29 09:55:00;;;;;;;;;;;;;;;8.01;100.00;99739.75;5053955;28;19932;-83
2022/12/29 09:57:38;;;;;;;;;;;;;;;7.98;100.00;99754.03;5055423;28;19924;-82
2022/12/29 10:00:11;;;;;;;;;;;;;;;7.89;100.00;99756.81;5051833;28;20062;-82
2022/12/29 10:02:38;;;;;;;;;;;;;;;7.78;100.00;99766.63;5053092;28;20244;-82
2022/12/29 10:05:04;;;;;;;;;;;;;;;7.76;100.00;99771.22;5055499;28;19917;-82
2022/12/29 10:07:45;;;;;;;;;;;;;;;7.77;100.00;99793.03;5055937;28;19920;-82
2022/12/29 10:10:29;;;;;;;;;;;;;;;7.93;100.00;99789.69;5071475;28;19928;-82
2022/12/29 10:13:21;;;;;;;;;;;;;;;7.99;100.00;99783.75;5052324;28;19917;-81
2022/12/29 10:15:46;;;;;;;;;;;;;;;8.02;100.00;99772.94;5053861;28;19921;-82
2022/12/29 10:18:24;;;;;;;;;;;;;;;7.99;100.00;99783.75;5055000;28;20128;-83
2022/12/29 10:20:52;;;;;;;;;;;;;;;8.03;100.00;99790.34;5061480;28;19920;-81
2022/12/29 10:23:17;;;;;;;;;;;;;;;7.98;100.00;99797.91;5060199;28;20355;-81
2022/12/29 10:25:43;;;;;;;;;;;;;;;7.93;100.00;99790.50;5061692;28;19921;-80
2022/12/29 10:28:22;;;;;;;;;;;;;;;7.85;100.00;99808.03;5053122;28;20035;-82
2022/12/29 10:30:48;;;;;;;;;;;;;;;7.90;100.00;99800.47;5054503;28;19927;-81
2022/12/29 10:33:18;;;;;;;;;;;;;;;7.87;100.00;99821.81;5060011;28;19924;-82
2022/12/29 10:35:44;;;;;;;;;;;;;;;7.84;100.00;99833.47;5060173;28;19971;-81
2022/12/29 10:38:15;;;;;;;;;;;;;;;7.78;100.00;99840.16;5053279;28;20009;-80
2022/12/29 10:40:43;;;;;;;;;;;;;;;7.79;100.00;99851.50;5055192;28;20347;-81
2022/12/29 10:43:25;;;;;;;;;;;;;;;7.81;100.00;99852.97;5051102;28;19927;-81
2022/12/29 10:45:52;;;;;;;;;;;;;;;7.88;100.00;99862.88;5053838;28;19920;-80
2022/12/29 10:48:30;;;;;;;;;;;;;;;7.87;100.00;99877.00;5060441;28;19974;-81
2022/12/29 10:50:57;;;;;;;;;;;;;;;7.87;100.00;99884.88;5054022;28;20402;-82
2022/12/29 10:53:24;;;;;;;;;;;;;;;7.92;100.00;99898.34;5053910;28;19920;-80
2022/12/29 10:55:50;;;;;;;;;;;;;;;7.85;100.00;99895.53;5060015;28;19928;-82
2022/12/29 10:58:15;;;;;;;;;;;;;;;7.92;100.00;99909.69;5051617;28;19927;-82
2022/12/29 11:00:42;;;;;;;;;;;;;;;7.95;100.00;99921.72;5053132;28;20009;-82
2022/12/29 11:03:08;;;;;;;;;;;;;;;7.93;100.00;99926.28;5052678;28;19921;-84
2022/12/29 11:05:39;;;;;;;;;;;;;;;7.97;100.00;99940.75;5052765;28;19975;-80
2022/12/29 11:08:09;;;;;;;;;;;;;;;8.02;100.00;99935.88;5059044;28;19921;-79
2022/12/29 11:10:36;;;;;;;;;;;;;;;8.03;100.00;99951.50;5054265;28;19955;-79
2022/12/29 11:13:13;;;;;;;;;;;;;;;8.01;100.00;99953.44;5059245;28;20397;-79
2022/12/29 11:15:45;;;;;;;;;;;;;;;8.08;100.00;99968.56;5052421;28;19982;-81
2022/12/29 11:18:23;;;;;;;;;;;;;;;8.12;100.00;99957.63;5049634;28;19925;-80
2022/12/29 11:20:50;;;;;;;;;;;;;;;8.18;100.00;99948.25;5058453;28;19956;-80
2022/12/29 11:23:26;;;;;;;;;;;;;;;8.18;100.00;99945.63;5053223;28;19920;-80
2022/12/29 11:26:11;;;;;;;;;;;;;;;8.22;100.00;99950.41;5052255;28;20634;-81
2022/12/29 11:28:37;;;;;;;;;;;;;;;8.29;100.00;99953.25;5053063;28;20563;-80
2022/12/29 11:31:03;;;;;;;;;;;;;;;8.31;100.00;99939.94;5052200;28;20011;-80
2022/12/29 11:33:29;;;;;;;;;;;;;;;8.40;100.00;99923.22;5053573;28;20459;-81
2022/12/29 11:36:01;;;;;;;;;;;;;;;8.49;100.00;99932.00;5058435;28;20030;-79
2022/12/29 11:38:30;;;;;;;;;;;;;;;8.49;100.00;99924.91;5054264;28;19924;-79
2022/12/29 11:40:56;;;;;;;;;;;;;;;8.48;100.00;99931.19;5051321;28;19920;-79
2022/12/29 11:43:36;;;;;;;;;;;;;;;8.54;100.00;99914.78;5051369;28;19985;-79
2022/12/29 11:46:05;;;;;;;;;;;;;;;8.57;100.00;99917.06;5051486;28;19951;-79
2022/12/29 11:48:38;;;;;;;;;;;;;;;8.60;100.00;99910.66;5035783;28;19935;-80
2022/12/29 11:51:05;;;;;;;;;;;;;;;8.59;100.00;99922.19;5053360;28;19920;-83
2022/12/29 11:53:43;;;;;;;;;;;;;;;8.60;100.00;99923.81;5052696;28;20658;-81
2022/12/29 11:56:10;;;;;;;;;;;;;;;8.60;100.00;99924.66;5058810;28;19961;-80
2022/12/29 11:58:37;;;;;;;;;;;;;;;8.61;100.00;99926.28;5052474;28;19979;-79
2022/12/29 12:01:23;;;;;;;;;;;;;;;8.63;100.00;99924.31;5050939;28;20274;-81
2022/12/29 12:04:01;;;;;;;;;;;;;;;8.65;100.00;99935.50;5050120;28;19920;-78
2022/12/29 12:06:28;;;;;;;;;;;;;;;8.73;100.00;99926.00;5061803;28;19921;-81
2022/12/29 12:08:56;;;;;;;;;;;;;;;8.74;100.00;99936.34;5055094;28;19920;-83
2022/12/29 12:11:33;;;;;;;;;;;;;;;8.79;100.00;99925.34;5053030;28;19917;-84
2022/12/29 12:14:16;;;;;;;;;;;;;;;8.75;100.00;99931.91;5051657;28;19923;-84
2022/12/29 12:16:46;;;;;;;;;;;;;;;8.68;100.00;99930.91;5051196;28;19924;-83
2022/12/29 12:19:41;;;;;;;;;;;;;;;8.68;100.00;99929.09;5057386;28;20111;-81
2022/12/29 12:22:15;;;;;;;;;;;;;;;8.64;100.00;99941.78;4984351;28;20040;-82
2022/12/29 12:24:49;;;;;;;;;;;;;;;8.61;100.00;99949.97;4980155;28;19918;-83
2022/12/29 12:27:22;;;;;;;;;;;;;;;8.58;100.00;99963.44;4980823;28;19945;-83
2022/12/29 12:29:59;;;;;;;;;;;;;;;8.55;100.00;99973.44;4979222;28;19949;-83
2022/12/29 12:32:37;;;;;;;;;;;;;;;8.53;100.00;99978.84;4979848;28;20567;-83
2022/12/29 12:35:03;;;;;;;;;;;;;;;8.50;100.00;99981.81;4979544;28;19968;-84
2022/12/29 12:37:37;;;;;;;;;;;;;;;8.47;100.00;99997.91;4980122;28;19953;-84
2022/12/29 12:40:19;;;;;;;;;;;;;;;8.49;100.00;99998.56;4979909;28;19917;-84
2022/12/29 12:42:53;;;;;;;;;;;;;;;8.42;100.00;99987.84;4964113;28;19918;-81
2022/12/29 12:45:24;;;;;;;;;;;;;;;8.52;100.00;100007.97;4962927;28;20021;-83
2022/12/29 12:48:02;;;;;;;;;;;;;;;8.52;100.00;99994.81;4979588;28;20346;-83
2022/12/29 12:50:28;;;;;;;;;;;;;;;8.65;100.00;100009.16;4979764;28;20728;-83
2022/12/29 12:52:53;;;;;;;;;;;;;;;8.72;100.00;100013.78;4979964;28;20060;-84
2022/12/29 12:55:46;;;;;;;;;;;;;;;8.83;100.00;99997.72;4979453;28;19917;-84
2022/12/29 12:58:14;;;;;;;;;;;;;;;8.93;100.00;100011.56;5003724;28;20308;-83
2022/12/29 13:00:47;;;;;;;;;;;;;;;8.90;100.00;99992.63;5051801;28;19936;-83
2022/12/29 13:03:12;;;;;;;;;;;;;;;8.90;100.00;99993.47;5051966;28;19978;-84
2022/12/29 13:06:16;;;;;;;;;;;;;;;8.86;100.00;100005.28;5052893;28;19924;-84
2022/12/29 13:08:41;;;;;;;;;;;;;;;8.83;100.00;99995.09;4995934;28;20312;-84
2022/12/29 13:11:21;;;;;;;;;;;;;;;8.77;100.00;100003.63;5012901;28;19917;-83
2022/12/29 13:13:55;;;;;;;;;;;;;;;8.81;100.00;99994.41;5012472;28;19920;-82
2022/12/29 13:16:44;;;;;;;;;;;;;;;8.84;100.00;100001.97;5012284;28;19917;-82
2022/12/29 13:19:44;;;;;;;;;;;;;;;8.87;100.00;100014.03;4991168;28;19926;-84
2022/12/29 13:22:18;;;;;;;;;;;;;;;8.80;100.00;100013.84;4952578;28;20551;-82